aviador You're here:

PAOM Decoded Metar

NOME in AK, USA
Report Time2018-01-17 05:53:00
UTC Time2018-01-17 06:52:51
Flight Rules vfr VFR
Wind270° at 09 kt
W.Decomp.*RWY 28: 8.2 kt HW 3.7 kt LCW
RWY 21: 6.3 kt HW 6.5 kt RCW
W.Rank270° ranks 19
Current wind is above 270° avg. (7.8)
Visibility9999 m
Phenomena:N/A
Clouds:Scattered 055 Hf
Expected CloudBase > 400 ft AGL from Temp-Dew spread
CeilingNone
Temp-6°C (ISA -21)
Dew Point-7°C (93% RH)
AAT-12.0°C
QNH998 hPa
Density Alt-1,988 ft
Elevation36 ft
Report Wrong Elevation
Raw Report
PAOM 170553Z 27009KT 10SM SCT055 M06/M07 A2948=

Extra information for PAOM:More info

Metar Taf Metar & Taf Last 4 Metars F.Rules Stats Wind Profile Meteogram Temp Stats Airport Information Weather charts Add Link Nearby VenuesMetar ALERT Operation Metar Decoded Social comments

AIRNAV info for PAOM